sensor_id;sensor_type;location;lat;lon;timestamp;temperature;humidity
4406;DHT22;2216;53.806;11.598;2022-08-23T00:01:49;18.40;58.00
4406;DHT22;2216;53.806;11.598;2022-08-23T00:04:22;18.30;58.00
4406;DHT22;2216;53.806;11.598;2022-08-23T00:06:53;18.30;58.00
4406;DHT22;2216;53.806;11.598;2022-08-23T00:09:21;18.30;58.00
4406;DHT22;2216;53.806;11.598;2022-08-23T00:11:53;18.30;58.00
4406;DHT22;2216;53.806;11.598;2022-08-23T00:14:29;18.20;58.00
4406;DHT22;2216;53.806;11.598;2022-08-23T00:16:56;18.20;57.90
4406;DHT22;2216;53.806;11.598;2022-08-23T00:19:23;18.20;57.90
4406;DHT22;2216;53.806;11.598;2022-08-23T00:21:50;18.10;57.80
4406;DHT22;2216;53.806;11.598;2022-08-23T00:24:18;18.10;57.80
4406;DHT22;2216;53.806;11.598;2022-08-23T00:26:48;18.10;57.80
4406;DHT22;2216;53.806;11.598;2022-08-23T00:29:20;18.10;57.80
4406;DHT22;2216;53.806;11.598;2022-08-23T00:31:46;18.00;57.80
4406;DHT22;2216;53.806;11.598;2022-08-23T00:34:13;18.10;57.80
4406;DHT22;2216;53.806;11.598;2022-08-23T00:36:39;18.00;57.80
4406;DHT22;2216;53.806;11.598;2022-08-23T00:39:06;18.00;57.80
4406;DHT22;2216;53.806;11.598;2022-08-23T00:41:33;17.90;57.80
4406;DHT22;2216;53.806;11.598;2022-08-23T00:44:00;17.90;57.80
4406;DHT22;2216;53.806;11.598;2022-08-23T00:46:53;17.90;57.80
4406;DHT22;2216;53.806;11.598;2022-08-23T00:49:40;17.90;57.80
4406;DHT22;2216;53.806;11.598;2022-08-23T00:52:17;17.80;57.80
4406;DHT22;2216;53.806;11.598;2022-08-23T00:54:47;17.80;57.80
4406;DHT22;2216;53.806;11.598;2022-08-23T00:57:16;17.70;57.80
4406;DHT22;2216;53.806;11.598;2022-08-23T00:59:44;17.70;57.80
4406;DHT22;2216;53.806;11.598;2022-08-23T01:02:11;17.70;57.90
4406;DHT22;2216;53.806;11.598;2022-08-23T01:04:42;17.70;57.90
4406;DHT22;2216;53.806;11.598;2022-08-23T01:09:59;17.60;58.00
4406;DHT22;2216;53.806;11.598;2022-08-23T01:12:35;17.60;57.90
4406;DHT22;2216;53.806;11.598;2022-08-23T01:15:29;17.60;57.90
4406;DHT22;2216;53.806;11.598;2022-08-23T01:18:06;17.50;57.80
4406;DHT22;2216;53.806;11.598;2022-08-23T01:20:54;17.50;57.80
4406;DHT22;2216;53.806;11.598;2022-08-23T01:26:17;17.40;57.80
4406;DHT22;2216;53.806;11.598;2022-08-23T01:28:44;17.40;57.90
4406;DHT22;2216;53.806;11.598;2022-08-23T01:31:11;17.30;58.00
4406;DHT22;2216;53.806;11.598;2022-08-23T01:33:39;17.30;58.10
4406;DHT22;2216;53.806;11.598;2022-08-23T01:36:09;17.30;58.00
4406;DHT22;2216;53.806;11.598;2022-08-23T01:38:36;17.30;58.00
4406;DHT22;2216;53.806;11.598;2022-08-23T01:41:02;17.20;57.90
4406;DHT22;2216;53.806;11.598;2022-08-23T01:43:28;17.20;58.00
4406;DHT22;2216;53.806;11.598;2022-08-23T01:45:54;17.20;58.00
4406;DHT22;2216;53.806;11.598;2022-08-23T01:48:20;17.20;58.10
4406;DHT22;2216;53.806;11.598;2022-08-23T01:50:46;17.10;58.10
4406;DHT22;2216;53.806;11.598;2022-08-23T01:53:12;17.10;58.10
4406;DHT22;2216;53.806;11.598;2022-08-23T01:55:40;17.10;58.10
4406;DHT22;2216;53.806;11.598;2022-08-23T01:58:06;17.10;58.10
4406;DHT22;2216;53.806;11.598;2022-08-23T02:00:35;17.00;58.10
4406;DHT22;2216;53.806;11.598;2022-08-23T02:03:04;17.00;58.10
4406;DHT22;2216;53.806;11.598;2022-08-23T02:05:31;17.00;58.00
4406;DHT22;2216;53.806;11.598;2022-08-23T02:07:57;17.00;58.00
4406;DHT22;2216;53.806;11.598;2022-08-23T02:10:46;16.90;58.00
4406;DHT22;2216;53.806;11.598;2022-08-23T02:13:12;16.90;58.00
4406;DHT22;2216;53.806;11.598;2022-08-23T02:15:41;16.90;58.10
4406;DHT22;2216;53.806;11.598;2022-08-23T02:18:11;16.80;58.00
4406;DHT22;2216;53.806;11.598;2022-08-23T02:20:42;16.80;58.00
4406;DHT22;2216;53.806;11.598;2022-08-23T02:23:09;16.80;58.00
4406;DHT22;2216;53.806;11.598;2022-08-23T02:25:34;16.80;58.10
4406;DHT22;2216;53.806;11.598;2022-08-23T02:28:00;16.80;58.10
4406;DHT22;2216;53.806;11.598;2022-08-23T02:30:27;16.80;58.20
4406;DHT22;2216;53.806;11.598;2022-08-23T02:32:53;16.80;58.20
4406;DHT22;2216;53.806;11.598;2022-08-23T02:35:20;16.70;58.10
4406;DHT22;2216;53.806;11.598;2022-08-23T02:37:45;16.70;58.10
4406;DHT22;2216;53.806;11.598;2022-08-23T02:40:11;16.60;58.00
4406;DHT22;2216;53.806;11.598;2022-08-23T02:42:37;16.60;58.10
4406;DHT22;2216;53.806;11.598;2022-08-23T02:45:03;16.60;58.10
4406;DHT22;2216;53.806;11.598;2022-08-23T02:47:32;16.50;58.00
4406;DHT22;2216;53.806;11.598;2022-08-23T02:50:04;16.50;58.10
4406;DHT22;2216;53.806;11.598;2022-08-23T02:52:31;16.50;58.20
4406;DHT22;2216;53.806;11.598;2022-08-23T02:54:57;16.50;58.10
4406;DHT22;2216;53.806;11.598;2022-08-23T02:57:23;16.40;58.00
4406;DHT22;2216;53.806;11.598;2022-08-23T02:59:48;16.40;58.00
4406;DHT22;2216;53.806;11.598;2022-08-23T03:02:14;16.40;58.00
4406;DHT22;2216;53.806;11.598;2022-08-23T03:04:40;16.40;58.10
4406;DHT22;2216;53.806;11.598;2022-08-23T03:07:06;16.40;58.20
4406;DHT22;2216;53.806;11.598;2022-08-23T03:09:32;16.30;58.20
4406;DHT22;2216;53.806;11.598;2022-08-23T03:11:57;16.30;58.20
4406;DHT22;2216;53.806;11.598;2022-08-23T03:14:23;16.30;58.20
4406;DHT22;2216;53.806;11.598;2022-08-23T03:16:50;16.30;58.20
4406;DHT22;2216;53.806;11.598;2022-08-23T03:19:15;16.30;58.20
4406;DHT22;2216;53.806;11.598;2022-08-23T03:21:41;16.30;58.20
4406;DHT22;2216;53.806;11.598;2022-08-23T03:24:09;16.30;58.20
4406;DHT22;2216;53.806;11.598;2022-08-23T03:26:35;16.30;58.20
4406;DHT22;2216;53.806;11.598;2022-08-23T03:29:01;16.20;58.20
4406;DHT22;2216;53.806;11.598;2022-08-23T03:31:28;16.30;58.30
4406;DHT22;2216;53.806;11.598;2022-08-23T03:33:53;16.20;58.20
4406;DHT22;2216;53.806;11.598;2022-08-23T03:36:19;16.20;58.20
4406;DHT22;2216;53.806;11.598;2022-08-23T03:38:45;16.20;58.20
4406;DHT22;2216;53.806;11.598;2022-08-23T03:41:11;16.20;58.30
4406;DHT22;2216;53.806;11.598;2022-08-23T03:43:38;16.20;58.30
4406;DHT22;2216;53.806;11.598;2022-08-23T03:46:05;16.20;58.40
4406;DHT22;2216;53.806;11.598;2022-08-23T03:48:31;16.10;58.50
4406;DHT22;2216;53.806;11.598;2022-08-23T03:50:57;16.10;58.50
4406;DHT22;2216;53.806;11.598;2022-08-23T03:53:22;16.10;58.60
4406;DHT22;2216;53.806;11.598;2022-08-23T03:55:49;16.10;58.50
4406;DHT22;2216;53.806;11.598;2022-08-23T03:58:16;16.00;58.50
4406;DHT22;2216;53.806;11.598;2022-08-23T04:00:42;16.10;58.60
4406;DHT22;2216;53.806;11.598;2022-08-23T04:03:08;16.00;58.60
4406;DHT22;2216;53.806;11.598;2022-08-23T04:05:34;15.90;58.40
4406;DHT22;2216;53.806;11.598;2022-08-23T04:08:06;16.00;58.50
4406;DHT22;2216;53.806;11.598;2022-08-23T04:10:33;15.90;58.40
4406;DHT22;2216;53.806;11.598;2022-08-23T04:12:59;15.90;58.90
4406;DHT22;2216;53.806;11.598;2022-08-23T04:15:25;15.90;58.30
4406;DHT22;2216;53.806;11.598;2022-08-23T04:17:51;15.90;58.40
4406;DHT22;2216;53.806;11.598;2022-08-23T04:20:17;15.80;58.30
4406;DHT22;2216;53.806;11.598;2022-08-23T04:22:42;15.80;58.30
4406;DHT22;2216;53.806;11.598;2022-08-23T04:25:08;15.80;58.30
4406;DHT22;2216;53.806;11.598;2022-08-23T04:27:34;15.80;58.40
4406;DHT22;2216;53.806;11.598;2022-08-23T04:30:00;15.70;58.40
4406;DHT22;2216;53.806;11.598;2022-08-23T04:32:25;15.70;58.40
4406;DHT22;2216;53.806;11.598;2022-08-23T04:34:51;15.70;58.50
4406;DHT22;2216;53.806;11.598;2022-08-23T04:37:17;15.70;58.50
4406;DHT22;2216;53.806;11.598;2022-08-23T04:39:43;15.70;58.50
4406;DHT22;2216;53.806;11.598;2022-08-23T04:42:28;15.60;58.50
4406;DHT22;2216;53.806;11.598;2022-08-23T04:44:54;15.60;58.60
4406;DHT22;2216;53.806;11.598;2022-08-23T04:47:19;15.60;58.60
4406;DHT22;2216;53.806;11.598;2022-08-23T04:49:45;15.50;58.50
4406;DHT22;2216;53.806;11.598;2022-08-23T04:52:11;15.50;58.70
4406;DHT22;2216;53.806;11.598;2022-08-23T04:54:39;15.50;58.70
4406;DHT22;2216;53.806;11.598;2022-08-23T04:57:05;15.60;58.80
4406;DHT22;2216;53.806;11.598;2022-08-23T04:59:30;15.60;58.90
4406;DHT22;2216;53.806;11.598;2022-08-23T05:01:56;15.70;59.10
4406;DHT22;2216;53.806;11.598;2022-08-23T05:04:22;15.70;59.20
4406;DHT22;2216;53.806;11.598;2022-08-23T05:06:48;15.80;59.30
4406;DHT22;2216;53.806;11.598;2022-08-23T05:09:14;15.90;59.40
4406;DHT22;2216;53.806;11.598;2022-08-23T05:11:39;16.00;59.50
4406;DHT22;2216;53.806;11.598;2022-08-23T05:14:05;16.10;59.60
4406;DHT22;2216;53.806;11.598;2022-08-23T05:16:31;16.20;59.60
4406;DHT22;2216;53.806;11.598;2022-08-23T05:18:56;16.30;59.70
4406;DHT22;2216;53.806;11.598;2022-08-23T05:21:23;16.40;59.80
4406;DHT22;2216;53.806;11.598;2022-08-23T05:23:50;16.50;59.70
4406;DHT22;2216;53.806;11.598;2022-08-23T05:26:16;16.60;59.70
4406;DHT22;2216;53.806;11.598;2022-08-23T05:28:44;16.70;59.80
4406;DHT22;2216;53.806;11.598;2022-08-23T05:31:22;16.90;59.90
4406;DHT22;2216;53.806;11.598;2022-08-23T05:33:49;17.00;59.80
4406;DHT22;2216;53.806;11.598;2022-08-23T05:36:17;17.10;59.80
4406;DHT22;2216;53.806;11.598;2022-08-23T05:38:44;17.20;59.90
4406;DHT22;2216;53.806;11.598;2022-08-23T05:41:11;17.30;59.70
4406;DHT22;2216;53.806;11.598;2022-08-23T05:43:37;17.40;59.70
4406;DHT22;2216;53.806;11.598;2022-08-23T05:46:10;17.50;59.80
4406;DHT22;2216;53.806;11.598;2022-08-23T05:48:38;17.60;59.70
4406;DHT22;2216;53.806;11.598;2022-08-23T05:53:50;17.80;59.60
4406;DHT22;2216;53.806;11.598;2022-08-23T05:56:29;17.90;60.50
4406;DHT22;2216;53.806;11.598;2022-08-23T05:58:58;18.00;59.70
4406;DHT22;2216;53.806;11.598;2022-08-23T06:01:27;18.10;59.90
4406;DHT22;2216;53.806;11.598;2022-08-23T06:03:53;18.20;59.90
4406;DHT22;2216;53.806;11.598;2022-08-23T06:06:20;18.30;59.80
4406;DHT22;2216;53.806;11.598;2022-08-23T06:08:47;18.40;59.70
4406;DHT22;2216;53.806;11.598;2022-08-23T06:11:16;18.40;59.70
4406;DHT22;2216;53.806;11.598;2022-08-23T06:13:52;18.50;59.70
4406;DHT22;2216;53.806;11.598;2022-08-23T06:16:22;18.60;59.80
4406;DHT22;2216;53.806;11.598;2022-08-23T06:18:56;18.80;60.10
4406;DHT22;2216;53.806;11.598;2022-08-23T06:21:24;18.80;60.30
4406;DHT22;2216;53.806;11.598;2022-08-23T06:23:50;18.90;60.10
4406;DHT22;2216;53.806;11.598;2022-08-23T06:26:20;19.00;60.00
4406;DHT22;2216;53.806;11.598;2022-08-23T06:28:50;19.10;60.30
4406;DHT22;2216;53.806;11.598;2022-08-23T06:31:19;19.20;60.50
4406;DHT22;2216;53.806;11.598;2022-08-23T06:34:07;19.30;60.10
4406;DHT22;2216;53.806;11.598;2022-08-23T06:36:34;19.30;60.10
4406;DHT22;2216;53.806;11.598;2022-08-23T06:39:01;19.40;59.90
4406;DHT22;2216;53.806;11.598;2022-08-23T06:41:28;19.50;60.00
4406;DHT22;2216;53.806;11.598;2022-08-23T06:43:54;19.60;60.00
4406;DHT22;2216;53.806;11.598;2022-08-23T06:46:22;19.70;59.80
4406;DHT22;2216;53.806;11.598;2022-08-23T06:48:50;19.80;60.00
4406;DHT22;2216;53.806;11.598;2022-08-23T06:51:24;19.90;59.80
4406;DHT22;2216;53.806;11.598;2022-08-23T06:53:54;20.00;59.90
4406;DHT22;2216;53.806;11.598;2022-08-23T06:56:23;20.10;59.90
4406;DHT22;2216;53.806;11.598;2022-08-23T06:58:50;20.20;60.00
4406;DHT22;2216;53.806;11.598;2022-08-23T07:03:58;20.50;60.00
4406;DHT22;2216;53.806;11.598;2022-08-23T07:06:26;20.60;60.00
4406;DHT22;2216;53.806;11.598;2022-08-23T07:08:52;20.70;60.00
4406;DHT22;2216;53.806;11.598;2022-08-23T07:11:19;20.90;60.20
4406;DHT22;2216;53.806;11.598;2022-08-23T07:13:46;21.00;60.00
4406;DHT22;2216;53.806;11.598;2022-08-23T07:16:13;21.20;60.00
4406;DHT22;2216;53.806;11.598;2022-08-23T07:18:43;21.30;59.80
4406;DHT22;2216;53.806;11.598;2022-08-23T07:21:10;21.40;59.90
4406;DHT22;2216;53.806;11.598;2022-08-23T07:23:37;21.60;59.70
4406;DHT22;2216;53.806;11.598;2022-08-23T07:26:07;21.60;59.70
4406;DHT22;2216;53.806;11.598;2022-08-23T07:28:35;21.80;59.80
4406;DHT22;2216;53.806;11.598;2022-08-23T07:31:12;21.90;59.70
4406;DHT22;2216;53.806;11.598;2022-08-23T07:33:52;22.10;59.90
4406;DHT22;2216;53.806;11.598;2022-08-23T07:36:21;22.30;59.80
4406;DHT22;2216;53.806;11.598;2022-08-23T07:38:47;22.50;59.70
4406;DHT22;2216;53.806;11.598;2022-08-23T07:41:15;22.70;59.50
4406;DHT22;2216;53.806;11.598;2022-08-23T07:43:42;22.80;59.50
4406;DHT22;2216;53.806;11.598;2022-08-23T07:46:09;23.00;59.30
4406;DHT22;2216;53.806;11.598;2022-08-23T07:48:37;23.20;59.30
4406;DHT22;2216;53.806;11.598;2022-08-23T07:51:06;23.30;59.20
4406;DHT22;2216;53.806;11.598;2022-08-23T07:53:34;23.50;59.20
4406;DHT22;2216;53.806;11.598;2022-08-23T07:56:04;23.60;59.10
4406;DHT22;2216;53.806;11.598;2022-08-23T07:58:31;23.80;59.00
4406;DHT22;2216;53.806;11.598;2022-08-23T08:01:10;23.90;58.80
4406;DHT22;2216;53.806;11.598;2022-08-23T08:03:44;24.00;58.60
4406;DHT22;2216;53.806;11.598;2022-08-23T08:06:18;24.10;58.40
4406;DHT22;2216;53.806;11.598;2022-08-23T08:08:46;24.30;58.30
4406;DHT22;2216;53.806;11.598;2022-08-23T08:11:15;24.30;58.10
4406;DHT22;2216;53.806;11.598;2022-08-23T08:13:44;24.30;58.00
4406;DHT22;2216;53.806;11.598;2022-08-23T08:16:23;24.40;57.70
4406;DHT22;2216;53.806;11.598;2022-08-23T08:18:53;24.40;57.70
4406;DHT22;2216;53.806;11.598;2022-08-23T08:21:20;24.50;57.60
4406;DHT22;2216;53.806;11.598;2022-08-23T08:23:46;24.50;57.80
4406;DHT22;2216;53.806;11.598;2022-08-23T08:26:12;24.60;57.80
4406;DHT22;2216;53.806;11.598;2022-08-23T08:28:38;24.70;57.80
4406;DHT22;2216;53.806;11.598;2022-08-23T08:31:05;24.70;57.50
4406;DHT22;2216;53.806;11.598;2022-08-23T08:33:31;24.70;57.30
4406;DHT22;2216;53.806;11.598;2022-08-23T08:35:57;24.80;57.40
4406;DHT22;2216;53.806;11.598;2022-08-23T08:38:23;24.90;57.60
4406;DHT22;2216;53.806;11.598;2022-08-23T08:41:15;24.90;57.00
4406;DHT22;2216;53.806;11.598;2022-08-23T08:43:57;24.90;56.60
4406;DHT22;2216;53.806;11.598;2022-08-23T08:46:42;24.90;57.00
4406;DHT22;2216;53.806;11.598;2022-08-23T08:49:13;25.00;57.00
4406;DHT22;2216;53.806;11.598;2022-08-23T08:52:14;25.00;56.80
4406;DHT22;2216;53.806;11.598;2022-08-23T08:54:42;25.10;56.90
4406;DHT22;2216;53.806;11.598;2022-08-23T08:57:12;25.10;56.60
4406;DHT22;2216;53.806;11.598;2022-08-23T08:59:51;25.10;57.00
4406;DHT22;2216;53.806;11.598;2022-08-23T09:02:21;25.20;57.00
4406;DHT22;2216;53.806;11.598;2022-08-23T09:04:49;25.30;56.60
4406;DHT22;2216;53.806;11.598;2022-08-23T09:13:19;25.50;56.70
4406;DHT22;2216;53.806;11.598;2022-08-23T09:18:53;25.70;56.50
4406;DHT22;2216;53.806;11.598;2022-08-23T09:21:19;25.90;56.60
4406;DHT22;2216;53.806;11.598;2022-08-23T09:23:46;26.00;56.50
4406;DHT22;2216;53.806;11.598;2022-08-23T09:26:20;26.20;56.40
4406;DHT22;2216;53.806;11.598;2022-08-23T09:28:50;26.30;55.90
4406;DHT22;2216;53.806;11.598;2022-08-23T09:31:53;26.40;56.10
4406;DHT22;2216;53.806;11.598;2022-08-23T09:34:39;26.50;56.20
4406;DHT22;2216;53.806;11.598;2022-08-23T09:39:46;26.90;55.50
4406;DHT22;2216;53.806;11.598;2022-08-23T09:42:32;27.00;55.80
4406;DHT22;2216;53.806;11.598;2022-08-23T09:47:49;27.10;55.60
4406;DHT22;2216;53.806;11.598;2022-08-23T09:50:48;27.30;55.50
4406;DHT22;2216;53.806;11.598;2022-08-23T09:53:24;27.40;55.50
4406;DHT22;2216;53.806;11.598;2022-08-23T09:55:56;27.50;55.20
4406;DHT22;2216;53.806;11.598;2022-08-23T09:58:30;27.60;55.00
4406;DHT22;2216;53.806;11.598;2022-08-23T10:01:08;27.60;55.00
4406;DHT22;2216;53.806;11.598;2022-08-23T10:03:36;27.60;54.10
4406;DHT22;2216;53.806;11.598;2022-08-23T10:06:03;27.50;53.60
4406;DHT22;2216;53.806;11.598;2022-08-23T10:08:33;27.50;53.70
4406;DHT22;2216;53.806;11.598;2022-08-23T10:11:11;27.40;52.80
4406;DHT22;2216;53.806;11.598;2022-08-23T10:13:42;27.40;53.70
4406;DHT22;2216;53.806;11.598;2022-08-23T10:16:18;27.40;53.50
4406;DHT22;2216;53.806;11.598;2022-08-23T10:21:50;27.40;53.10
4406;DHT22;2216;53.806;11.598;2022-08-23T10:24:48;27.40;53.70
4406;DHT22;2216;53.806;11.598;2022-08-23T10:28:00;27.50;53.60
4406;DHT22;2216;53.806;11.598;2022-08-23T10:31:07;27.60;53.60
4406;DHT22;2216;53.806;11.598;2022-08-23T10:36:50;27.80;53.40
4406;DHT22;2216;53.806;11.598;2022-08-23T10:39:27;27.90;53.30
4406;DHT22;2216;53.806;11.598;2022-08-23T10:45:15;28.10;52.00
4406;DHT22;2216;53.806;11.598;2022-08-23T10:50:59;28.40;52.90
4406;DHT22;2216;53.806;11.598;2022-08-23T10:53:44;28.60;51.90
4406;DHT22;2216;53.806;11.598;2022-08-23T10:56:16;28.70;52.60
4406;DHT22;2216;53.806;11.598;2022-08-23T10:58:50;28.80;52.20
4406;DHT22;2216;53.806;11.598;2022-08-23T11:01:22;28.90;53.00
4406;DHT22;2216;53.806;11.598;2022-08-23T11:07:18;29.10;52.70
4406;DHT22;2216;53.806;11.598;2022-08-23T11:09:52;29.20;52.10
4406;DHT22;2216;53.806;11.598;2022-08-23T11:12:26;29.20;51.10
4406;DHT22;2216;53.806;11.598;2022-08-23T11:14:57;29.20;51.80
4406;DHT22;2216;53.806;11.598;2022-08-23T11:23:35;29.00;50.60
4406;DHT22;2216;53.806;11.598;2022-08-23T11:26:05;28.90;50.60
4406;DHT22;2216;53.806;11.598;2022-08-23T11:28:40;28.80;50.50
4406;DHT22;2216;53.806;11.598;2022-08-23T11:42:22;28.50;50.20
4406;DHT22;2216;53.806;11.598;2022-08-23T11:44:59;28.60;50.40
4406;DHT22;2216;53.806;11.598;2022-08-23T11:47:27;28.60;51.00
4406;DHT22;2216;53.806;11.598;2022-08-23T11:53:30;28.80;51.10
4406;DHT22;2216;53.806;11.598;2022-08-23T11:56:35;28.90;50.30
4406;DHT22;2216;53.806;11.598;2022-08-23T12:07:44;29.20;50.40
4406;DHT22;2216;53.806;11.598;2022-08-23T12:10:56;29.30;50.50
4406;DHT22;2216;53.806;11.598;2022-08-23T12:18:33;29.40;49.10
4406;DHT22;2216;53.806;11.598;2022-08-23T12:21:04;29.40;49.80
4406;DHT22;2216;53.806;11.598;2022-08-23T12:23:43;29.40;49.60
4406;DHT22;2216;53.806;11.598;2022-08-23T12:28:57;29.50;49.60
4406;DHT22;2216;53.806;11.598;2022-08-23T12:39:56;29.30;47.40
4406;DHT22;2216;53.806;11.598;2022-08-23T12:42:33;29.20;47.60
4406;DHT22;2216;53.806;11.598;2022-08-23T12:45:13;29.10;47.90
4406;DHT22;2216;53.806;11.598;2022-08-23T12:47:55;29.00;48.40
4406;DHT22;2216;53.806;11.598;2022-08-23T12:50:34;29.00;48.00
4406;DHT22;2216;53.806;11.598;2022-08-23T12:53:13;29.00;48.40
4406;DHT22;2216;53.806;11.598;2022-08-23T12:55:45;29.00;48.50
4406;DHT22;2216;53.806;11.598;2022-08-23T12:58:15;29.00;47.30
4406;DHT22;2216;53.806;11.598;2022-08-23T13:00:51;29.00;47.40
4406;DHT22;2216;53.806;11.598;2022-08-23T13:06:10;29.00;48.60
4406;DHT22;2216;53.806;11.598;2022-08-23T13:08:46;29.10;47.90
4406;DHT22;2216;53.806;11.598;2022-08-23T13:11:25;29.20;47.90
4406;DHT22;2216;53.806;11.598;2022-08-23T13:13:52;29.20;47.60
4406;DHT22;2216;53.806;11.598;2022-08-23T13:16:32;29.20;47.10
4406;DHT22;2216;53.806;11.598;2022-08-23T13:22:25;29.30;48.00
4406;DHT22;2216;53.806;11.598;2022-08-23T13:27:34;29.30;47.60
4406;DHT22;2216;53.806;11.598;2022-08-23T13:35:36;29.50;48.20
4406;DHT22;2216;53.806;11.598;2022-08-23T13:40:38;29.40;47.20
4406;DHT22;2216;53.806;11.598;2022-08-23T13:49:10;29.40;47.20
4406;DHT22;2216;53.806;11.598;2022-08-23T13:51:40;29.40;47.40
4406;DHT22;2216;53.806;11.598;2022-08-23T13:54:10;29.30;46.70
4406;DHT22;2216;53.806;11.598;2022-08-23T13:56:47;29.30;46.90
4406;DHT22;2216;53.806;11.598;2022-08-23T13:59:21;29.30;47.10
4406;DHT22;2216;53.806;11.598;2022-08-23T14:01:50;29.20;47.50
4406;DHT22;2216;53.806;11.598;2022-08-23T14:04:16;29.20;47.20
4406;DHT22;2216;53.806;11.598;2022-08-23T14:06:42;29.30;46.80
4406;DHT22;2216;53.806;11.598;2022-08-23T14:09:08;29.30;47.30
4406;DHT22;2216;53.806;11.598;2022-08-23T14:11:34;29.40;47.70
4406;DHT22;2216;53.806;11.598;2022-08-23T14:14:00;29.40;46.90
4406;DHT22;2216;53.806;11.598;2022-08-23T14:16:29;29.50;46.70
4406;DHT22;2216;53.806;11.598;2022-08-23T14:18:56;29.50;46.60
4406;DHT22;2216;53.806;11.598;2022-08-23T14:21:22;29.40;46.40
4406;DHT22;2216;53.806;11.598;2022-08-23T14:23:48;29.40;46.50
4406;DHT22;2216;53.806;11.598;2022-08-23T14:26:16;29.20;46.70
4406;DHT22;2216;53.806;11.598;2022-08-23T14:28:43;29.20;46.70
4406;DHT22;2216;53.806;11.598;2022-08-23T14:31:10;29.10;46.90
4406;DHT22;2216;53.806;11.598;2022-08-23T14:33:36;29.10;46.60
4406;DHT22;2216;53.806;11.598;2022-08-23T14:36:03;28.90;46.30
4406;DHT22;2216;53.806;11.598;2022-08-23T14:38:29;28.90;46.40
4406;DHT22;2216;53.806;11.598;2022-08-23T14:40:57;28.90;46.20
4406;DHT22;2216;53.806;11.598;2022-08-23T14:43:27;28.80;46.10
4406;DHT22;2216;53.806;11.598;2022-08-23T14:45:54;28.70;46.20
4406;DHT22;2216;53.806;11.598;2022-08-23T14:48:20;28.70;46.10
4406;DHT22;2216;53.806;11.598;2022-08-23T14:50:47;28.60;45.60
4406;DHT22;2216;53.806;11.598;2022-08-23T14:53:16;28.40;45.70
4406;DHT22;2216;53.806;11.598;2022-08-23T14:55:43;28.20;45.90
4406;DHT22;2216;53.806;11.598;2022-08-23T14:58:09;28.00;45.80
4406;DHT22;2216;53.806;11.598;2022-08-23T15:00:35;27.90;45.70
4406;DHT22;2216;53.806;11.598;2022-08-23T15:03:03;27.80;46.20
4406;DHT22;2216;53.806;11.598;2022-08-23T15:05:30;27.80;46.10
4406;DHT22;2216;53.806;11.598;2022-08-23T15:07:56;27.70;45.70
4406;DHT22;2216;53.806;11.598;2022-08-23T15:10:21;27.70;46.20
4406;DHT22;2216;53.806;11.598;2022-08-23T15:12:47;27.70;46.20
4406;DHT22;2216;53.806;11.598;2022-08-23T15:15:16;27.70;45.60
4406;DHT22;2216;53.806;11.598;2022-08-23T15:17:49;27.70;46.20
4406;DHT22;2216;53.806;11.598;2022-08-23T15:20:18;27.70;45.80
4406;DHT22;2216;53.806;11.598;2022-08-23T15:22:45;27.70;45.80
4406;DHT22;2216;53.806;11.598;2022-08-23T15:25:12;27.60;46.20
4406;DHT22;2216;53.806;11.598;2022-08-23T15:27:40;27.60;46.00
4406;DHT22;2216;53.806;11.598;2022-08-23T15:30:07;27.60;46.20
4406;DHT22;2216;53.806;11.598;2022-08-23T15:32:34;27.60;45.90
4406;DHT22;2216;53.806;11.598;2022-08-23T15:35:00;27.50;46.00
4406;DHT22;2216;53.806;11.598;2022-08-23T15:37:25;27.50;46.20
4406;DHT22;2216;53.806;11.598;2022-08-23T15:39:51;27.50;45.80
4406;DHT22;2216;53.806;11.598;2022-08-23T15:42:17;27.50;46.00
4406;DHT22;2216;53.806;11.598;2022-08-23T15:44:42;27.40;45.90
4406;DHT22;2216;53.806;11.598;2022-08-23T15:47:19;27.40;46.30
4406;DHT22;2216;53.806;11.598;2022-08-23T15:49:46;27.40;46.40
4406;DHT22;2216;53.806;11.598;2022-08-23T15:52:13;27.40;46.10
4406;DHT22;2216;53.806;11.598;2022-08-23T15:54:39;27.40;45.90
4406;DHT22;2216;53.806;11.598;2022-08-23T15:57:04;27.40;46.20
4406;DHT22;2216;53.806;11.598;2022-08-23T15:59:31;27.40;46.20
4406;DHT22;2216;53.806;11.598;2022-08-23T16:02:01;27.30;45.60
4406;DHT22;2216;53.806;11.598;2022-08-23T16:04:26;27.30;45.50
4406;DHT22;2216;53.806;11.598;2022-08-23T16:06:52;27.20;45.70
4406;DHT22;2216;53.806;11.598;2022-08-23T16:09:22;27.20;45.50
4406;DHT22;2216;53.806;11.598;2022-08-23T16:11:49;27.20;45.50
4406;DHT22;2216;53.806;11.598;2022-08-23T16:14:15;27.10;45.60
4406;DHT22;2216;53.806;11.598;2022-08-23T16:16:41;27.30;45.90
4406;DHT22;2216;53.806;11.598;2022-08-23T16:19:08;27.00;45.70
4406;DHT22;2216;53.806;11.598;2022-08-23T16:21:34;27.00;45.70
4406;DHT22;2216;53.806;11.598;2022-08-23T16:24:00;27.00;46.10
4406;DHT22;2216;53.806;11.598;2022-08-23T16:26:29;26.90;46.00
4406;DHT22;2216;53.806;11.598;2022-08-23T16:28:58;26.90;46.00
4406;DHT22;2216;53.806;11.598;2022-08-23T16:31:25;26.90;45.90
4406;DHT22;2216;53.806;11.598;2022-08-23T16:33:55;26.90;46.00
4406;DHT22;2216;53.806;11.598;2022-08-23T16:36:21;26.90;45.90
4406;DHT22;2216;53.806;11.598;2022-08-23T16:38:47;26.90;45.80
4406;DHT22;2216;53.806;11.598;2022-08-23T16:41:13;26.80;45.80
4406;DHT22;2216;53.806;11.598;2022-08-23T16:43:40;26.80;45.70
4406;DHT22;2216;53.806;11.598;2022-08-23T16:46:06;26.70;45.80
4406;DHT22;2216;53.806;11.598;2022-08-23T16:48:32;26.70;46.10
4406;DHT22;2216;53.806;11.598;2022-08-23T16:50:58;26.70;45.50
4406;DHT22;2216;53.806;11.598;2022-08-23T16:53:24;26.60;45.70
4406;DHT22;2216;53.806;11.598;2022-08-23T16:55:52;26.60;45.90
4406;DHT22;2216;53.806;11.598;2022-08-23T16:58:18;26.50;45.90
4406;DHT22;2216;53.806;11.598;2022-08-23T17:00:45;26.40;45.60
4406;DHT22;2216;53.806;11.598;2022-08-23T17:03:12;26.40;45.70
4406;DHT22;2216;53.806;11.598;2022-08-23T17:05:39;26.30;45.60
4406;DHT22;2216;53.806;11.598;2022-08-23T17:08:05;26.30;45.80
4406;DHT22;2216;53.806;11.598;2022-08-23T17:10:31;26.20;45.50
4406;DHT22;2216;53.806;11.598;2022-08-23T17:12:58;26.20;45.80
4406;DHT22;2216;53.806;11.598;2022-08-23T17:15:33;26.10;45.60
4406;DHT22;2216;53.806;11.598;2022-08-23T17:17:59;26.00;45.70
4406;DHT22;2216;53.806;11.598;2022-08-23T17:20:27;26.00;45.90
4406;DHT22;2216;53.806;11.598;2022-08-23T17:22:54;26.00;46.00
4406;DHT22;2216;53.806;11.598;2022-08-23T17:25:21;25.90;46.00
4406;DHT22;2216;53.806;11.598;2022-08-23T17:27:49;25.80;46.00
4406;DHT22;2216;53.806;11.598;2022-08-23T17:30:18;25.80;45.90
4406;DHT22;2216;53.806;11.598;2022-08-23T17:32:46;25.80;46.00
4406;DHT22;2216;53.806;11.598;2022-08-23T17:35:14;25.60;46.00
4406;DHT22;2216;53.806;11.598;2022-08-23T17:37:41;25.60;46.10
4406;DHT22;2216;53.806;11.598;2022-08-23T17:40:10;25.50;46.10
4406;DHT22;2216;53.806;11.598;2022-08-23T17:42:39;25.40;46.20
4406;DHT22;2216;53.806;11.598;2022-08-23T17:45:06;25.40;46.20
4406;DHT22;2216;53.806;11.598;2022-08-23T17:47:33;25.30;46.20
4406;DHT22;2216;53.806;11.598;2022-08-23T17:49:59;25.20;46.20
4406;DHT22;2216;53.806;11.598;2022-08-23T17:52:25;25.10;46.30